Time;durP1;ratioP1;P1;durP2;ratioP2;P2;SDS_P1;SDS_P2;PMS_P1;PMS_P2;Temp;Humidity;BMP_temperature;BMP_pressure;BME280_temperature;BME280_humidity;BME280_pressure;Samples;Min_cycle;Max_cycle;Signal;HPM_P1;HPM_P2
2022/12/28 00:00:22;;;;;;;1999.90;999.90;;;;;;;1.05;100.00;95322.25;4996352;28;20186;-61
2022/12/28 00:02:48;;;;;;;1999.90;999.90;;;;;;;0.99;100.00;95323.66;4996072;28;20173;-61
2022/12/28 00:05:13;;;;;;;1999.90;999.90;;;;;;;0.99;100.00;95329.03;4996077;28;20576;-70
2022/12/28 00:07:38;;;;;;;1999.90;999.90;;;;;;;0.97;100.00;95317.81;4996187;28;20532;-78
2022/12/28 00:10:04;;;;;;;1999.90;999.90;;;;;;;0.96;100.00;95313.59;4995944;28;20188;-61
2022/12/28 00:12:31;;;;;;;1999.90;999.90;;;;;;;0.96;100.00;95313.59;4996751;28;20232;-60
2022/12/28 00:14:57;;;;;;;1999.90;999.90;;;;;;;0.97;100.00;95315.13;4996535;28;20686;-60
2022/12/28 00:17:22;;;;;;;1999.90;999.90;;;;;;;0.98;100.00;95307.88;4994812;28;20270;-60
2022/12/28 00:19:48;;;;;;;1999.90;999.90;;;;;;;0.93;100.00;95316.97;4996000;28;20186;-60
2022/12/28 00:22:13;;;;;;;1999.90;999.90;;;;;;;0.93;100.00;95316.97;4995792;28;20575;-60
2022/12/28 00:24:38;;;;;;;1999.90;999.90;;;;;;;0.91;100.00;95308.44;4995545;28;20577;-61
2022/12/28 00:27:04;;;;;;;1999.90;999.90;;;;;;;0.92;100.00;95310.03;4995652;28;20185;-74
2022/12/28 00:29:29;;;;;;;1999.90;999.90;;;;;;;0.84;100.00;95316.31;4996075;28;20174;-75
2022/12/28 00:31:54;;;;;;;1999.90;999.90;;;;;;;0.88;100.00;95313.72;4995718;28;20179;-74
2022/12/28 00:34:20;;;;;;;1999.90;999.90;;;;;;;0.87;100.00;95310.25;4995333;28;20221;-74
2022/12/28 00:36:49;;;;;;;1999.90;999.90;;;;;;;0.88;100.00;95311.06;4995156;28;20174;-73
2022/12/28 00:39:14;;;;;;;1999.90;999.90;;;;;;;0.88;100.00;95319.91;4995954;28;20205;-74
2022/12/28 00:41:40;;;;;;;1999.90;999.90;;;;;;;0.91;100.00;95310.38;4995934;28;20178;-74
2022/12/28 00:44:05;;;;;;;1999.90;999.90;;;;;;;0.91;100.00;95307.69;4995174;28;20260;-59
2022/12/28 00:46:31;;;;;;;1999.90;999.90;;;;;;;0.88;100.00;95303.78;4995406;28;20179;-73
2022/12/28 00:48:56;;;;;;;1999.90;999.90;;;;;;;0.84;100.00;95299.44;4995418;28;20178;-73
2022/12/28 00:51:21;;;;;;;1999.90;999.90;;;;;;;0.81;100.00;95303.59;4995289;28;20182;-72
2022/12/28 00:53:47;;;;;;;1999.90;999.90;;;;;;;0.76;100.00;95313.81;4995444;28;20289;-73
2022/12/28 00:56:15;;;;;;;1999.90;999.90;;;;;;;0.78;100.00;95304.28;4995606;28;20183;-73
2022/12/28 00:58:40;;;;;;;1999.90;999.90;;;;;;;0.80;100.00;95303.94;5011045;28;20177;-74
2022/12/28 01:01:18;;;;;;;1999.90;999.90;;;;;;;0.78;100.00;95312.31;5011748;28;20185;-66
2022/12/28 01:03:44;;;;;;;1999.90;999.90;;;;;;;0.77;100.00;95304.59;4995458;28;20197;-60
2022/12/28 01:06:12;;;;;;;1999.90;999.90;;;;;;;0.75;100.00;95299.56;4995318;28;20597;-60
2022/12/28 01:08:38;;;;;;;1999.90;999.90;;;;;;;0.73;100.00;95299.13;4994501;28;20220;-60
2022/12/28 01:11:18;;;;;;;1999.90;999.90;;;;;;;0.70;100.00;95294.47;4994652;28;20392;-62
2022/12/28 01:13:44;;;;;;;1999.90;999.90;;;;;;;0.71;100.00;95296.00;4995538;28;20173;-60
2022/12/28 01:16:11;;;;;;;1999.90;999.90;;;;;;;0.73;100.00;95287.63;4995458;28;20628;-62
2022/12/28 01:18:36;;;;;;;1999.90;999.90;;;;;;;0.72;100.00;95283.38;4994454;28;20182;-60
2022/12/28 01:21:10;;;;;;;1999.90;999.90;;;;;;;0.73;100.00;95277.63;4994645;28;20254;-69
2022/12/28 01:23:35;;;;;;;1999.90;999.90;;;;;;;0.75;100.00;95290.72;4994434;28;20680;-74
2022/12/28 01:26:01;;;;;;;1999.90;999.90;;;;;;;0.75;100.00;95286.16;4994791;28;20197;-75
2022/12/28 01:28:28;;;;;;;1999.90;999.90;;;;;;;0.75;100.00;95291.50;4994505;28;20310;-74
2022/12/28 01:30:53;;;;;;;1999.90;999.90;;;;;;;0.73;100.00;95298.34;4994445;28;20185;-73
2022/12/28 01:33:18;;;;;;;1999.90;999.90;;;;;;;0.70;100.00;95304.41;4994522;28;20220;-73
2022/12/28 01:35:44;;;;;;;1999.90;999.90;;;;;;;0.67;100.00;95311.25;4994333;28;20176;-72
2022/12/28 01:38:09;;;;;;;1999.90;999.90;;;;;;;0.63;100.00;95315.75;4994495;28;20183;-59
2022/12/28 01:40:34;;;;;;;1999.90;999.90;;;;;;;0.61;100.00;95314.53;4995150;28;20193;-61
2022/12/28 01:42:59;;;;;;;1999.90;999.90;;;;;;;0.65;100.00;95312.72;4994377;28;20506;-63
2022/12/28 01:45:25;;;;;;;1999.90;999.90;;;;;;;0.65;100.00;95307.34;4994372;28;20544;-61
2022/12/28 01:47:54;;;;;;;1999.90;999.90;;;;;;;0.61;100.00;95315.31;4993998;28;20201;-60
2022/12/28 01:50:24;;;;;;;1999.90;999.90;;;;;;;0.64;100.00;95308.47;4994472;28;20177;-60
2022/12/28 01:52:54;;;;;;;1999.90;999.90;;;;;;;0.68;100.00;95291.31;4994824;28;20693;-60
2022/12/28 01:55:40;;;;;;;1999.90;999.90;;;;;;;0.67;100.00;95289.75;4994746;28;20259;-60
2022/12/28 01:58:15;;;;;;;1999.90;999.90;;;;;;;0.71;100.00;95289.84;4994175;28;20208;-68
2022/12/28 02:00:41;;;;;;;1999.90;999.90;;;;;;;0.66;100.00;95277.47;4994592;28;20234;-74
2022/12/28 02:03:11;;;;;;;1999.90;999.90;;;;;;;0.70;100.00;95282.91;4994172;28;20178;-74
2022/12/28 02:05:40;;;;;;;1999.90;999.90;;;;;;;0.72;100.00;95264.56;4994434;28;20292;-74
2022/12/28 02:08:08;;;;;;;1999.90;999.90;;;;;;;0.71;100.00;95252.25;5011010;28;20182;-74
2022/12/28 02:10:35;;;;;;;1999.90;999.90;;;;;;;0.73;100.00;95241.94;4994041;28;20188;-74
2022/12/28 02:13:02;;;;;;;1999.90;999.90;;;;;;;0.79;100.00;95244.03;4994573;28;20226;-73
2022/12/28 02:15:27;;;;;;;1999.90;999.90;;;;;;;0.80;100.00;95229.47;4994267;28;20199;-68
2022/12/28 02:17:53;;;;;;;1999.90;999.90;;;;;;;0.84;100.00;95214.19;4994079;28;20628;-65
2022/12/28 02:20:18;;;;;;;1999.90;999.90;;;;;;;0.90;100.00;95212.84;5011086;28;20173;-66
2022/12/28 02:23:07;;;;;;;1999.90;999.90;;;;;;;0.94;100.00;95197.56;4994376;28;20183;-68
2022/12/28 02:25:58;;;;;;;1999.90;999.90;;;;;;;0.95;100.00;95196.44;4993753;28;20250;-68
2022/12/28 02:28:43;;;;;;;1999.90;999.90;;;;;;;0.93;100.00;95185.28;4993056;28;20644;-67
2022/12/28 02:31:16;;;;;;;1999.90;999.90;;;;;;;0.96;100.00;95179.22;4994327;28;20183;-67
2022/12/28 02:33:50;;;;;;;1999.90;999.90;;;;;;;0.98;100.00;95158.13;4993446;28;20256;-58
2022/12/28 02:36:21;;;;;;;1999.90;999.90;;;;;;;1.00;100.00;95155.88;4994175;28;20177;-70
2022/12/28 02:38:49;;;;;;;1999.90;999.90;;;;;;;1.03;100.00;95146.34;4994332;28;20613;-69
2022/12/28 02:41:19;;;;;;;1999.90;999.90;;;;;;;0.99;100.00;95140.88;4996734;28;20244;-70
2022/12/28 02:43:45;;;;;;;1999.90;999.90;;;;;;;0.84;100.00;95149.72;4997629;28;20185;-70
2022/12/28 02:52:20;;;;;;;1999.90;999.90;;;;;;;0.85;100.00;95116.38;4998905;28;20184;-60
2022/12/28 02:57:33;;;;;;;1999.90;999.90;;;;;;;0.86;100.00;95142.09;4998268;28;20221;-62
2022/12/28 03:00:06;;;;;;;1999.90;999.90;;;;;;;0.88;100.00;95134.50;4997378;28;20223;-60
2022/12/28 03:02:47;;;;;;;1999.90;999.90;;;;;;;0.90;100.00;95121.47;4997733;28;20190;-61
2022/12/28 03:08:41;;;;;;;1999.90;999.90;;;;;;;0.95;100.00;95097.00;4998006;28;20627;-61
2022/12/28 03:11:09;;;;;;;1999.90;999.90;;;;;;;1.00;100.00;95095.97;4997352;28;20175;-61
2022/12/28 03:14:11;;;;;;;1999.90;999.90;;;;;;;1.01;100.00;95090.25;4996770;28;20187;-60
2022/12/28 03:33:17;;;;;;;1999.90;999.90;;;;;;;1.10;100.00;95031.72;5005162;28;20227;-58
2022/12/28 03:35:51;;;;;;;1999.90;999.90;;;;;;;1.12;100.00;95034.00;5000327;28;20194;-59
2022/12/28 03:38:27;;;;;;;1999.90;999.90;;;;;;;1.14;100.00;95021.81;4999684;28;20169;-59
2022/12/28 03:41:06;;;;;;;1999.90;999.90;;;;;;;1.16;100.00;95016.84;4999438;28;20170;-59
2022/12/28 03:43:39;;;;;;;1999.90;999.90;;;;;;;1.16;100.00;95011.47;4999876;28;20699;-59
2022/12/28 03:46:15;;;;;;;1999.90;999.90;;;;;;;1.17;100.00;94996.13;5000150;28;20212;-57
2022/12/28 03:48:41;;;;;;;1999.90;999.90;;;;;;;1.19;100.00;94989.25;5000169;28;20495;-61
2022/12/28 03:51:07;;;;;;;1999.90;999.90;;;;;;;1.27;100.00;94990.19;4999399;28;20645;-59
2022/12/28 03:53:44;;;;;;;1999.90;999.90;;;;;;;1.37;100.00;94979.63;5000061;28;20175;-60
2022/12/28 03:56:19;;;;;;;1999.90;999.90;;;;;;;1.48;100.00;94964.47;4999330;28;20180;-58
2022/12/28 03:58:45;;;;;;;1999.90;999.90;;;;;;;1.56;100.00;94966.16;4999979;28;20178;-58
2022/12/28 04:01:10;;;;;;;1999.90;999.90;;;;;;;1.62;100.00;94975.50;4999839;28;20182;-58
2022/12/28 04:03:36;;;;;;;1999.90;999.90;;;;;;;1.70;100.00;94969.13;5000187;28;20184;-59
2022/12/28 04:06:01;;;;;;;1999.90;999.90;;;;;;;1.70;100.00;94993.31;4998978;28;20209;-60
2022/12/28 04:08:27;;;;;;;1999.90;999.90;;;;;;;1.70;100.00;94995.22;4999970;28;20186;-79
2022/12/28 04:10:53;;;;;;;1999.90;999.90;;;;;;;1.56;100.00;95003.81;4999260;28;20208;-80
2022/12/28 04:13:19;;;;;;;1999.90;999.90;;;;;;;1.57;100.00;95008.06;4999622;28;20203;-79
2022/12/28 04:15:54;;;;;;;1999.90;999.90;;;;;;;1.58;100.00;95006.94;4998801;28;20492;-77
2022/12/28 04:18:19;;;;;;;1999.90;999.90;;;;;;;1.63;100.00;95013.94;4999095;28;20174;-77
2022/12/28 04:20:44;;;;;;;1999.90;999.90;;;;;;;1.63;100.00;95014.72;4999551;28;20205;-75
2022/12/28 04:23:10;;;;;;;1999.90;999.90;;;;;;;1.67;100.00;94999.41;4999796;28;20198;-58
2022/12/28 04:25:35;;;;;;;1999.90;999.90;;;;;;;1.66;100.00;95005.94;4999709;28;20260;-74
2022/12/28 04:28:00;;;;;;;1999.90;999.90;;;;;;;1.82;100.00;95006.63;4999620;28;20221;-66
2022/12/28 04:30:26;;;;;;;1999.90;999.90;;;;;;;1.90;100.00;95008.28;4998879;28;20572;-66
2022/12/28 04:32:51;;;;;;;1999.90;999.90;;;;;;;1.77;100.00;95015.00;5014895;28;20627;-66
2022/12/28 04:35:16;;;;;;;1999.90;999.90;;;;;;;1.78;100.00;95016.53;4998988;28;20174;-66
2022/12/28 04:37:42;;;;;;;1999.90;999.90;;;;;;;1.76;100.00;95024.22;4998757;28;20204;-66
2022/12/28 04:40:07;;;;;;;1999.90;999.90;;;;;;;1.78;100.00;95027.31;4998953;28;20174;-67
2022/12/28 04:42:33;;;;;;;1999.90;999.90;;;;;;;1.95;100.00;95032.25;4998615;28;20170;-75
2022/12/28 04:44:58;;;;;;;1999.90;999.90;;;;;;;2.02;100.00;95027.00;4999041;28;20202;-61
2022/12/28 04:47:23;;;;;;;1999.90;999.90;;;;;;;2.01;100.00;95035.41;5015002;28;20183;-62
2022/12/28 04:49:49;;;;;;;1999.90;999.90;;;;;;;2.06;100.00;95043.97;4999011;28;20341;-61
2022/12/28 04:52:14;;;;;;;1999.90;999.90;;;;;;;2.05;100.00;95058.59;4998135;28;20217;-61
2022/12/28 04:54:40;;;;;;;1999.90;999.90;;;;;;;1.95;100.00;95064.53;4998254;28;20208;-61
2022/12/28 04:57:05;;;;;;;1999.90;999.90;;;;;;;1.84;100.00;95074.34;4998364;28;20185;-60
2022/12/28 04:59:31;;;;;;;1999.90;999.90;;;;;;;1.85;100.00;95072.41;4998516;28;20182;-60
2022/12/28 05:01:56;;;;;;;1999.90;999.90;;;;;;;1.79;100.00;95082.69;4998310;28;20206;-62
2022/12/28 05:04:21;;;;;;;1999.90;999.90;;;;;;;1.77;100.00;95082.28;4997514;28;20203;-58
2022/12/28 05:06:46;;;;;;;1999.90;999.90;;;;;;;1.77;100.00;95084.97;4998418;28;20184;-59
2022/12/28 05:09:12;;;;;;;1999.90;999.90;;;;;;;1.79;100.00;95077.28;4998080;28;20183;-58
2022/12/28 05:11:37;;;;;;;1999.90;999.90;;;;;;;1.84;100.00;95073.53;5013993;28;20195;-58
2022/12/28 05:14:02;;;;;;;1999.90;999.90;;;;;;;1.82;100.00;95076.59;4997917;28;20178;-58
2022/12/28 05:16:29;;;;;;;1999.90;999.90;;;;;;;1.85;100.00;95083.97;4998244;28;20280;-58
2022/12/28 05:18:56;;;;;;;1999.90;999.90;;;;;;;2.08;100.00;95074.00;4997818;28;20231;-62
2022/12/28 05:21:24;;;;;;;1999.90;999.90;;;;;;;2.14;100.00;95077.19;4998062;28;20647;-61
2022/12/28 05:23:50;;;;;;;1999.90;999.90;;;;;;;2.18;100.00;95073.44;4997815;28;20197;-62
2022/12/28 05:26:18;;;;;;;1999.90;999.90;;;;;;;2.23;100.00;95075.81;4997453;28;20206;-61
2022/12/28 05:28:44;;;;;;;1999.90;999.90;;;;;;;2.29;100.00;95063.63;5014044;28;20175;-62
2022/12/28 05:31:13;;;;;;;1999.90;999.90;;;;;;;2.31;100.00;95066.75;4997536;28;20209;-62
2022/12/28 05:33:38;;;;;;;1999.90;999.90;;;;;;;2.34;100.00;95079.47;4997573;28;20293;-62
2022/12/28 05:36:05;;;;;;;1999.90;999.90;;;;;;;2.38;100.00;95083.03;4997275;28;20271;-60
2022/12/28 05:38:31;;;;;;;1999.90;999.90;;;;;;;2.42;100.00;95094.66;5014247;28;20171;-75
2022/12/28 05:41:22;;;;;;;1999.90;999.90;;;;;;;2.45;100.00;95098.53;4997589;28;20173;-60
2022/12/28 05:43:48;;;;;;;1999.90;999.90;;;;;;;2.49;100.00;95100.16;4998116;28;20171;-61
2022/12/28 05:46:18;;;;;;;1999.90;999.90;;;;;;;2.51;100.00;95114.03;4997984;28;20198;-61
2022/12/28 05:48:43;;;;;;;1999.90;999.90;;;;;;;2.52;100.00;95120.22;4997680;28;20190;-61
2022/12/28 05:51:14;;;;;;;1999.90;999.90;;;;;;;2.56;100.00;95138.00;4997582;28;20266;-61
2022/12/28 05:53:41;;;;;;;1999.90;999.90;;;;;;;2.60;100.00;95155.03;4998056;28;20195;-61
2022/12/28 05:56:12;;;;;;;1999.90;999.90;;;;;;;2.60;100.00;95165.78;5014622;28;20258;-59
2022/12/28 05:58:37;;;;;;;1999.90;999.90;;;;;;;2.62;100.00;95185.06;4997738;28;20167;-74
2022/12/28 06:01:09;;;;;;;1999.90;999.90;;;;;;;2.66;100.00;95196.69;5013504;28;20597;-74
2022/12/28 06:03:35;;;;;;;1999.90;999.90;;;;;;;2.70;100.00;95216.41;5015087;28;20172;-74
2022/12/28 06:06:09;;;;;;;1999.90;999.90;;;;;;;2.71;100.00;95231.44;4997154;28;20267;-76
2022/12/28 06:08:35;;;;;;;1999.90;999.90;;;;;;;2.70;100.00;95243.34;4997506;28;20242;-74
2022/12/28 06:11:02;;;;;;;1999.90;999.90;;;;;;;2.73;100.00;95249.97;4997381;28;20178;-79
2022/12/28 06:13:29;;;;;;;1999.90;999.90;;;;;;;2.68;100.00;95264.50;4998104;28;20171;-67
2022/12/28 06:15:55;;;;;;;1999.90;999.90;;;;;;;2.74;100.00;95268.44;5001371;28;20176;-63
2022/12/28 06:18:21;;;;;;;1999.90;999.90;;;;;;;2.76;100.00;95276.97;5001829;28;20190;-60
2022/12/28 06:20:46;;;;;;;1999.90;999.90;;;;;;;2.80;100.00;95287.81;5001317;28;20538;-61
2022/12/28 06:23:11;;;;;;;1999.90;999.90;;;;;;;2.82;100.00;95305.22;5001289;28;20183;-60
2022/12/28 06:25:37;;;;;;;1999.90;999.90;;;;;;;2.87;100.00;95321.09;5000979;28;20198;-60
2022/12/28 06:28:02;;;;;;;1999.90;999.90;;;;;;;2.89;100.00;95335.00;5001200;28;20225;-60
2022/12/28 06:30:28;;;;;;;1999.90;999.90;;;;;;;2.90;100.00;95336.56;5001166;28;20179;-60
2022/12/28 06:32:55;;;;;;;1999.90;999.90;;;;;;;2.94;100.00;95347.41;5000908;28;20230;-61
2022/12/28 06:35:20;;;;;;;1999.90;999.90;;;;;;;2.92;100.00;95358.53;5000848;28;20172;-60
2022/12/28 06:37:46;;;;;;;1999.90;999.90;;;;;;;2.97;100.00;95369.06;5000994;28;20175;-60
2022/12/28 06:40:12;;;;;;;1999.90;999.90;;;;;;;2.98;100.00;95386.00;5000957;28;20198;-60
2022/12/28 06:42:37;;;;;;;1999.90;999.90;;;;;;;2.98;100.00;95386.81;5000723;28;20620;-61
2022/12/28 06:45:03;;;;;;;1999.90;999.90;;;;;;;2.99;100.00;95398.38;5000786;28;20207;-60
2022/12/28 06:47:28;;;;;;;1999.90;999.90;;;;;;;2.99;100.00;95401.84;5000745;28;20175;-60
2022/12/28 06:49:54;;;;;;;1999.90;999.90;;;;;;;2.98;100.00;95413.75;5000447;28;20179;-59
2022/12/28 06:52:20;;;;;;;1999.90;999.90;;;;;;;3.01;100.00;95423.06;5000794;28;20175;-79
2022/12/28 06:54:45;;;;;;;1999.90;999.90;;;;;;;3.01;100.00;95429.25;5001042;28;20198;-57
2022/12/28 06:57:11;;;;;;;1999.90;999.90;;;;;;;3.00;100.00;95446.56;5001082;28;20269;-54
2022/12/28 06:59:36;;;;;;;1999.90;999.90;;;;;;;3.02;100.00;95455.06;5000431;28;20207;-59
2022/12/28 07:02:01;;;;;;;1999.90;999.90;;;;;;;3.03;100.00;95453.94;5000681;28;20171;-57
2022/12/28 07:04:26;;;;;;;1999.90;999.90;;;;;;;3.06;100.00;95450.53;5000160;28;20202;-49
2022/12/28 07:06:52;;;;;;;1999.90;999.90;;;;;;;3.11;100.00;95465.66;5000212;28;20182;-51
2022/12/28 07:09:17;;;;;;;1999.90;999.90;;;;;;;3.11;100.00;95476.44;5001061;28;20183;-64
2022/12/28 07:11:44;;;;;;;1999.90;999.90;;;;;;;3.16;100.00;95485.03;5000401;28;20240;-57
2022/12/28 07:14:10;;;;;;;1999.90;999.90;;;;;;;3.29;100.00;95488.41;5000723;28;20179;-56
2022/12/28 07:16:35;;;;;;;1999.90;999.90;;;;;;;3.58;100.00;95489.75;5000840;28;20191;-57
2022/12/28 07:19:01;;;;;;;1999.90;999.90;;;;;;;3.63;100.00;95513.75;5000441;28;20175;-56
2022/12/28 07:21:44;;;;;;;1999.90;999.90;;;;;;;3.56;100.00;95529.81;5000068;28;20266;-58
2022/12/28 07:24:10;;;;;;;1999.90;999.90;;;;;;;3.54;100.00;95544.44;5000540;28;20262;-58
2022/12/28 07:26:36;;;;;;;1999.90;999.90;;;;;;;3.57;100.00;95552.97;4999956;28;20275;-58
2022/12/28 07:29:04;;;;;;;1999.90;999.90;;;;;;;3.53;100.00;95565.63;5000010;28;20171;-56
2022/12/28 07:31:33;;;;;;;1999.90;999.90;;;;;;;3.54;100.00;95576.81;5000619;28;20282;-69
2022/12/28 07:33:59;;;;;;;1999.90;999.90;;;;;;;3.53;100.00;95573.72;4999638;28;20754;-66
2022/12/28 07:36:27;;;;;;;1999.90;999.90;;;;;;;3.53;100.00;95584.50;5017299;28;20179;-67
2022/12/28 07:38:52;;;;;;;1999.90;999.90;;;;;;;3.53;100.00;95589.91;4999606;28;20179;-68
2022/12/28 07:41:20;;;;;;;1999.90;999.90;;;;;;;3.51;100.00;95601.81;4999752;28;20175;-67
2022/12/28 07:43:46;;;;;;;1999.90;999.90;;;;;;;3.35;100.00;95605.69;4999365;28;20179;-65
2022/12/28 07:46:17;;;;;;;1999.90;999.90;;;;;;;3.38;100.00;95596.91;4999628;28;20237;-57
2022/12/28 07:48:44;;;;;;;1999.90;999.90;;;;;;;3.39;100.00;95601.94;5000234;28;20179;-58
2022/12/28 07:51:16;;;;;;;1999.90;999.90;;;;;;;3.41;100.00;95599.69;4999629;28;20253;-56
2022/12/28 07:53:43;;;;;;;1999.90;999.90;;;;;;;3.46;100.00;95591.31;4999810;28;20179;-58
2022/12/28 07:56:09;;;;;;;1999.90;999.90;;;;;;;3.45;100.00;95595.16;5000023;28;20266;-57
2022/12/28 07:58:35;;;;;;;1999.90;999.90;;;;;;;3.49;100.00;95601.41;5015829;28;20183;-56
2022/12/28 08:01:08;;;;;;;1999.90;999.90;;;;;;;3.56;100.00;95597.31;4999076;28;20171;-57
2022/12/28 08:03:34;;;;;;;1999.90;999.90;;;;;;;3.63;100.00;95594.72;4999392;28;20262;-58
2022/12/28 08:06:19;;;;;;;1999.90;999.90;;;;;;;3.73;100.00;95588.78;4999299;28;20290;-70
2022/12/28 08:08:46;;;;;;;1999.90;999.90;;;;;;;3.81;100.00;95606.69;4999345;28;20194;-67
2022/12/28 08:11:20;;;;;;;1999.90;999.90;;;;;;;3.87;100.00;95613.38;4999374;28;20218;-65
2022/12/28 08:13:48;;;;;;;1999.90;999.90;;;;;;;3.97;100.00;95610.88;4999084;28;20175;-65
2022/12/28 08:16:17;;;;;;;1999.90;999.90;;;;;;;4.03;100.00;95620.28;4999075;28;20181;-65
2022/12/28 08:18:42;;;;;;;1999.90;999.90;;;;;;;4.12;100.00;95634.38;4999615;28;20198;-64
2022/12/28 08:21:19;;;;;;;1999.90;999.90;;;;;;;4.22;100.00;95641.88;4998855;28;20175;-66
2022/12/28 08:23:44;;;;;;;1999.90;999.90;;;;;;;4.33;100.00;95652.91;5000000;28;20382;-61
2022/12/28 08:26:11;;;;;;;1999.90;999.90;;;;;;;4.43;100.00;95660.44;4998935;28;20303;-60
2022/12/28 08:28:38;;;;;;;1999.90;999.90;;;;;;;4.56;100.00;95675.38;4999474;28;20176;-59
2022/12/28 08:31:08;;;;;;;1999.90;999.90;;;;;;;4.72;100.00;95684.97;4999164;28;20179;-59
2022/12/28 08:33:34;;;;;;;1999.90;999.90;;;;;;;4.88;100.00;95695.69;4998789;28;20220;-59
2022/12/28 08:36:00;;;;;;;1999.90;999.90;;;;;;;5.05;100.00;95708.72;5015470;28;20180;-58
2022/12/28 08:38:26;;;;;;;1999.90;999.90;;;;;;;5.21;100.00;95722.94;4997789;28;20187;-59
2022/12/28 08:40:56;;;;;;;1999.90;999.90;;;;;;;5.41;100.00;95732.56;4998628;28;20208;-59
2022/12/28 08:43:21;;;;;;;1999.90;999.90;;;;;;;5.53;100.00;95743.19;4998340;28;20281;-57
2022/12/28 08:46:10;;;;;;;1999.90;999.90;;;;;;;5.77;100.00;95756.38;4998508;28;20288;-60
2022/12/28 08:48:35;;;;;;;1999.90;999.90;;;;;;;5.97;100.00;95779.56;4998244;28;20176;-58
2022/12/28 08:51:07;;;;;;;1999.90;999.90;;;;;;;6.03;100.00;95788.94;4998943;28;20179;-59
2022/12/28 08:53:33;;;;;;;1999.90;999.90;;;;;;;6.14;100.00;95795.31;4998752;28;20183;-58
2022/12/28 08:56:09;;;;;;;1999.90;999.90;;;;;;;6.16;100.00;95801.16;4999107;28;20223;-59
2022/12/28 08:58:35;;;;;;;1999.90;999.90;;;;;;;6.22;100.00;95810.53;4998387;28;20190;-58
2022/12/28 09:01:06;;;;;;;1999.90;999.90;;;;;;;6.39;100.00;95810.03;4998214;28;20252;-67
2022/12/28 09:03:34;;;;;;;1999.90;999.90;;;;;;;6.56;100.00;95809.50;4997969;28;20263;-57
2022/12/28 09:06:02;;;;;;;1999.90;999.90;;;;;;;6.61;100.00;95801.81;4998665;28;20205;-58
2022/12/28 09:08:27;;;;;;;1999.90;999.90;;;;;;;6.65;100.00;95808.06;4998073;28;20184;-57
2022/12/28 09:10:52;;;;;;;1999.90;999.90;;;;;;;6.82;100.00;95812.16;4974787;28;20191;-58
2022/12/28 09:13:18;;;;;;;1999.90;999.90;;;;;;;6.85;100.00;95812.19;4958459;28;20190;-58
2022/12/28 09:15:43;;;;;;;1999.90;999.90;;;;;;;7.04;100.00;95816.72;4958941;28;20186;-58
2022/12/28 09:18:08;;;;;;;1999.90;999.90;;;;;;;7.12;100.00;95815.63;4958972;28;20236;-66
2022/12/28 09:20:34;;;;;;;1999.90;999.90;;;;;;;7.25;100.00;95808.03;4958630;28;20187;-66
2022/12/28 09:22:59;;;;;;;1999.90;999.90;;;;;;;7.31;100.00;95818.16;4958172;28;20194;-67
2022/12/28 09:25:24;;;;;;;1999.90;999.90;;;;;;;7.52;100.00;95812.97;4958757;28;20226;-67
2022/12/28 09:27:50;;;;;;;1999.90;999.90;;;;;;;7.73;100.00;95824.06;4958010;28;20175;-62
2022/12/28 09:30:15;;;;;;;1999.90;999.90;;;;;;;7.93;100.00;95828.13;4958111;28;20195;-64
2022/12/28 09:32:40;;;;;;;1999.90;999.90;;;;;;;8.09;100.00;95820.47;4958051;28;20238;-66
2022/12/28 09:35:06;;;;;;;1999.90;999.90;;;;;;;8.42;100.00;95822.31;4958078;28;20232;-66
2022/12/28 09:37:31;;;;;;;1999.90;999.90;;;;;;;8.67;100.00;95815.09;4958174;28;20209;-61
2022/12/28 09:39:57;;;;;;;1999.90;999.90;;;;;;;8.85;100.00;95819.47;4974441;28;20180;-65
2022/12/28 09:42:27;;;;;;;1999.90;999.90;;;;;;;9.00;100.00;95821.09;4986435;28;20250;-65
2022/12/28 09:44:59;;;;;;;1999.90;999.90;;;;;;;8.76;100.00;95821.75;4997274;28;20203;-64
2022/12/28 09:47:39;;;;;;;1999.90;999.90;;;;;;;8.92;100.00;95814.06;4997193;28;20183;-64
2022/12/28 09:50:05;;;;;;;1999.90;999.90;;;;;;;8.86;100.00;95812.09;4997796;28;20253;-63
2022/12/28 09:52:52;;;;;;;1999.90;999.90;;;;;;;8.82;100.00;95803.13;4998231;28;20591;-64
2022/12/28 09:55:18;;;;;;;1999.90;999.90;;;;;;;8.86;100.00;95799.22;5014573;28;20604;-64
2022/12/28 09:57:48;;;;;;;1999.90;999.90;;;;;;;8.87;100.00;95806.25;4998027;28;20198;-70
2022/12/28 10:00:27;;;;;;;1999.90;999.90;;;;;;;8.75;100.00;95792.94;4997448;28;20171;-74
2022/12/28 10:03:04;;;;;;;1999.90;999.90;;;;;;;9.13;100.00;95795.09;4997872;28;20171;-70
2022/12/28 10:05:29;;;;;;;1999.90;999.90;;;;;;;9.76;100.00;95802.63;5014678;28;20266;-72
2022/12/28 10:07:58;;;;;;;1999.90;999.90;;;;;;;10.26;100.00;95792.59;4997019;28;20183;-71
2022/12/28 10:10:25;;;;;;;1999.90;999.90;;;;;;;10.34;100.00;95794.13;4997424;28;20181;-70
2022/12/28 10:12:51;;;;;;;1999.90;999.90;;;;;;;10.45;100.00;95794.91;4997728;28;20188;-63
2022/12/28 10:15:18;;;;;;;1999.90;999.90;;;;;;;10.41;100.00;95788.66;5013916;28;20209;-65
2022/12/28 10:17:44;;;;;;;1999.90;999.90;;;;;;;10.20;100.00;95783.97;4997206;28;20181;-64
2022/12/28 10:20:18;;;;;;;1999.90;999.90;;;;;;;10.10;100.00;95776.59;4997801;28;20177;-65
2022/12/28 10:22:49;;;;;;;1999.90;999.90;;;;;;;9.78;100.00;95775.78;4997213;28;20174;-64
2022/12/28 10:25:17;;;;;;;1999.90;999.90;;;;;;;9.76;100.00;95776.16;4997696;28;20256;-63
2022/12/28 10:27:43;;;;;;;1999.90;999.90;;;;;;;9.64;100.00;95773.81;5014530;28;20196;-64
2022/12/28 10:30:22;;;;;;;1999.90;999.90;;;;;;;9.55;100.00;95770.66;4997407;28;20176;-64
2022/12/28 10:32:51;;;;;;;1999.90;999.90;;;;;;;9.55;100.00;95767.94;4997242;28;20216;-67
2022/12/28 10:35:50;;;;;;;1999.90;999.90;;;;;;;9.59;100.00;95755.09;4997242;28;20184;-68
2022/12/28 10:38:29;;;;;;;1999.90;999.90;;;;;;;9.46;100.00;95755.84;4997576;28;20183;-68
2022/12/28 10:41:04;;;;;;;1999.90;999.90;;;;;;;9.59;100.00;95744.19;4997064;28;20255;-69
2022/12/28 10:43:35;;;;;;;1999.90;999.90;;;;;;;9.44;100.00;95748.06;4997465;28;20187;-68
2022/12/28 10:46:02;;;;;;;1999.90;999.90;;;;;;;9.40;100.00;95739.09;4996775;28;20211;-71
2022/12/28 10:48:35;;;;;;;1999.90;999.90;;;;;;;9.36;100.00;95735.59;4996843;28;20186;-73
2022/12/28 10:51:13;;;;;;;1999.90;999.90;;;;;;;9.23;100.00;95737.13;4997653;28;20175;-67
2022/12/28 10:53:39;;;;;;;1999.90;999.90;;;;;;;9.20;100.00;95735.16;4996992;28;20186;-63
2022/12/28 10:56:26;;;;;;;1999.90;999.90;;;;;;;9.26;100.00;95730.13;4997014;28;20184;-62
2022/12/28 10:59:13;;;;;;;1999.90;999.90;;;;;;;9.09;100.00;95728.91;4996077;28;20191;-63
2022/12/28 11:01:40;;;;;;;1999.90;999.90;;;;;;;9.19;100.00;95722.72;4999485;28;20203;-63
2022/12/28 11:04:19;;;;;;;1999.90;999.90;;;;;;;9.31;100.00;95721.56;5000441;28;20202;-63
2022/12/28 11:06:59;;;;;;;1999.90;999.90;;;;;;;9.35;100.00;95712.22;5017631;28;20598;-63
2022/12/28 11:09:33;;;;;;;1999.90;999.90;;;;;;;9.40;100.00;95714.56;5000425;28;20183;-67
2022/12/28 11:12:25;;;;;;;1999.90;999.90;;;;;;;9.39;100.00;95713.00;5000819;28;20174;-58
2022/12/28 11:14:51;;;;;;;1999.90;999.90;;;;;;;9.39;100.00;95706.78;5000053;28;20172;-55
2022/12/28 11:17:19;;;;;;;1999.90;999.90;;;;;;;9.20;100.00;95710.66;5000586;28;20219;-58
2022/12/28 11:19:47;;;;;;;1999.90;999.90;;;;;;;9.16;100.00;95709.88;5000236;28;20207;-58
2022/12/28 11:22:23;;;;;;;1999.90;999.90;;;;;;;9.00;100.00;95695.81;5016503;28;20191;-59
2022/12/28 11:24:48;;;;;;;1999.90;999.90;;;;;;;8.88;100.00;95696.16;5000069;28;20175;-61
2022/12/28 11:27:17;;;;;;;1999.90;999.90;;;;;;;8.88;100.00;95696.16;5016894;28;20179;-72
2022/12/28 11:29:48;;;;;;;1999.90;999.90;;;;;;;8.88;100.00;95693.44;4999824;28;20199;-60